sensor_id;sensor_type;location;lat;lon;timestamp;P1;durP1;ratioP1;P2;durP2;ratioP2
64387;SDS011;50709;52.648;4.764;2022-10-17T00:00:20;8.50;;;4.10;;
64387;SDS011;50709;52.648;4.764;2022-10-17T00:02:45;4.72;;;3.60;;
64387;SDS011;50709;52.648;4.764;2022-10-17T00:05:10;7.28;;;3.72;;
64387;SDS011;50709;52.648;4.764;2022-10-17T00:07:36;7.05;;;3.65;;
64387;SDS011;50709;52.648;4.764;2022-10-17T00:10:02;7.53;;;3.88;;
64387;SDS011;50709;52.648;4.764;2022-10-17T00:12:29;9.02;;;3.88;;
64387;SDS011;50709;52.648;4.764;2022-10-17T00:14:54;6.97;;;3.38;;
64387;SDS011;50709;52.648;4.764;2022-10-17T00:17:19;8.75;;;3.85;;
64387;SDS011;50709;52.648;4.764;2022-10-17T00:19:45;6.97;;;4.07;;
64387;SDS011;50709;52.648;4.764;2022-10-17T00:22:11;5.90;;;4.53;;
64387;SDS011;50709;52.648;4.764;2022-10-17T00:24:37;5.57;;;3.85;;
64387;SDS011;50709;52.648;4.764;2022-10-17T00:27:02;5.53;;;3.80;;
64387;SDS011;50709;52.648;4.764;2022-10-17T00:29:27;7.40;;;4.18;;
64387;SDS011;50709;52.648;4.764;2022-10-17T00:31:54;7.32;;;3.83;;
64387;SDS011;50709;52.648;4.764;2022-10-17T00:34:20;5.90;;;3.58;;
64387;SDS011;50709;52.648;4.764;2022-10-17T00:36:45;5.60;;;3.80;;
64387;SDS011;50709;52.648;4.764;2022-10-17T00:39:10;6.10;;;3.70;;
64387;SDS011;50709;52.648;4.764;2022-10-17T00:41:36;7.35;;;3.45;;
64387;SDS011;50709;52.648;4.764;2022-10-17T00:44:03;8.00;;;3.75;;
64387;SDS011;50709;52.648;4.764;2022-10-17T00:46:34;7.53;;;3.78;;
64387;SDS011;50709;52.648;4.764;2022-10-17T00:49:02;6.13;;;3.88;;
64387;SDS011;50709;52.648;4.764;2022-10-17T00:51:33;8.82;;;3.80;;
64387;SDS011;50709;52.648;4.764;2022-10-17T00:54:04;6.53;;;3.70;;
64387;SDS011;50709;52.648;4.764;2022-10-17T00:56:31;6.00;;;3.85;;
64387;SDS011;50709;52.648;4.764;2022-10-17T00:58:57;7.28;;;4.20;;
64387;SDS011;50709;52.648;4.764;2022-10-17T01:01:22;6.63;;;3.95;;
64387;SDS011;50709;52.648;4.764;2022-10-17T01:03:47;7.03;;;4.22;;
64387;SDS011;50709;52.648;4.764;2022-10-17T01:06:13;7.47;;;4.18;;
64387;SDS011;50709;52.648;4.764;2022-10-17T01:08:38;7.93;;;4.25;;
64387;SDS011;50709;52.648;4.764;2022-10-17T01:14:21;7.82;;;4.50;;
64387;SDS011;50709;52.648;4.764;2022-10-17T01:27:48;7.88;;;4.95;;
64387;SDS011;50709;52.648;4.764;2022-10-17T01:30:23;7.50;;;4.32;;
64387;SDS011;50709;52.648;4.764;2022-10-17T01:33:12;8.98;;;4.50;;
64387;SDS011;50709;52.648;4.764;2022-10-17T01:35:55;6.93;;;4.68;;
64387;SDS011;50709;52.648;4.764;2022-10-17T01:38:24;8.05;;;4.53;;
64387;SDS011;50709;52.648;4.764;2022-10-17T01:46:00;6.40;;;4.80;;
64387;SDS011;50709;52.648;4.764;2022-10-17T01:48:36;8.40;;;5.00;;
64387;SDS011;50709;52.648;4.764;2022-10-17T01:51:06;7.55;;;4.85;;
64387;SDS011;50709;52.648;4.764;2022-10-17T01:53:37;8.65;;;4.95;;
64387;SDS011;50709;52.648;4.764;2022-10-17T01:56:09;6.78;;;4.78;;
64387;SDS011;50709;52.648;4.764;2022-10-17T01:58:46;7.15;;;4.85;;
64387;SDS011;50709;52.648;4.764;2022-10-17T02:01:15;8.55;;;5.05;;
64387;SDS011;50709;52.648;4.764;2022-10-17T02:03:42;8.77;;;5.03;;
64387;SDS011;50709;52.648;4.764;2022-10-17T02:06:10;8.45;;;5.53;;
64387;SDS011;50709;52.648;4.764;2022-10-17T02:08:40;8.57;;;5.18;;
64387;SDS011;50709;52.648;4.764;2022-10-17T02:25:16;9.60;;;5.10;;
64387;SDS011;50709;52.648;4.764;2022-10-17T02:27:54;7.75;;;5.38;;
64387;SDS011;50709;52.648;4.764;2022-10-17T02:33:13;8.30;;;5.57;;
64387;SDS011;50709;52.648;4.764;2022-10-17T02:35:45;9.83;;;5.50;;
64387;SDS011;50709;52.648;4.764;2022-10-17T02:38:15;8.00;;;5.80;;
64387;SDS011;50709;52.648;4.764;2022-10-17T02:40:42;7.15;;;5.00;;
64387;SDS011;50709;52.648;4.764;2022-10-17T02:43:10;10.82;;;5.53;;
64387;SDS011;50709;52.648;4.764;2022-10-17T02:45:37;7.72;;;5.50;;
64387;SDS011;50709;52.648;4.764;2022-10-17T02:48:04;8.73;;;5.60;;
64387;SDS011;50709;52.648;4.764;2022-10-17T02:50:39;9.77;;;5.85;;
64387;SDS011;50709;52.648;4.764;2022-10-17T02:53:31;9.15;;;5.55;;
64387;SDS011;50709;52.648;4.764;2022-10-17T02:56:01;8.55;;;5.15;;
64387;SDS011;50709;52.648;4.764;2022-10-17T02:58:32;8.55;;;4.85;;
64387;SDS011;50709;52.648;4.764;2022-10-17T03:01:00;7.68;;;5.70;;
64387;SDS011;50709;52.648;4.764;2022-10-17T03:03:26;8.77;;;5.45;;
64387;SDS011;50709;52.648;4.764;2022-10-17T03:05:56;10.18;;;5.60;;
64387;SDS011;50709;52.648;4.764;2022-10-17T03:08:22;7.22;;;5.47;;
64387;SDS011;50709;52.648;4.764;2022-10-17T03:10:47;8.80;;;5.47;;
64387;SDS011;50709;52.648;4.764;2022-10-17T03:13:13;9.73;;;5.68;;
64387;SDS011;50709;52.648;4.764;2022-10-17T03:15:39;10.15;;;6.07;;
64387;SDS011;50709;52.648;4.764;2022-10-17T03:18:04;8.55;;;6.00;;
64387;SDS011;50709;52.648;4.764;2022-10-17T03:20:30;9.23;;;5.70;;
64387;SDS011;50709;52.648;4.764;2022-10-17T03:22:56;9.23;;;6.25;;
64387;SDS011;50709;52.648;4.764;2022-10-17T03:25:21;9.80;;;5.90;;
64387;SDS011;50709;52.648;4.764;2022-10-17T03:27:47;9.52;;;6.00;;
64387;SDS011;50709;52.648;4.764;2022-10-17T03:30:12;8.70;;;5.72;;
64387;SDS011;50709;52.648;4.764;2022-10-17T03:32:37;9.82;;;6.32;;
64387;SDS011;50709;52.648;4.764;2022-10-17T03:35:03;8.85;;;5.82;;
64387;SDS011;50709;52.648;4.764;2022-10-17T03:37:28;7.82;;;5.57;;
64387;SDS011;50709;52.648;4.764;2022-10-17T03:39:54;10.82;;;6.03;;
64387;SDS011;50709;52.648;4.764;2022-10-17T03:42:19;10.73;;;5.95;;
64387;SDS011;50709;52.648;4.764;2022-10-17T03:44:44;8.90;;;6.13;;
64387;SDS011;50709;52.648;4.764;2022-10-17T03:47:10;10.02;;;6.28;;
64387;SDS011;50709;52.648;4.764;2022-10-17T03:49:35;7.75;;;5.60;;
64387;SDS011;50709;52.648;4.764;2022-10-17T03:52:01;8.55;;;5.88;;
64387;SDS011;50709;52.648;4.764;2022-10-17T03:54:26;9.05;;;5.43;;
64387;SDS011;50709;52.648;4.764;2022-10-17T03:56:52;11.43;;;6.13;;
64387;SDS011;50709;52.648;4.764;2022-10-17T03:59:17;8.27;;;5.80;;
64387;SDS011;50709;52.648;4.764;2022-10-17T04:01:42;11.18;;;6.00;;
64387;SDS011;50709;52.648;4.764;2022-10-17T04:04:08;9.15;;;5.80;;
64387;SDS011;50709;52.648;4.764;2022-10-17T04:06:34;8.30;;;5.57;;
64387;SDS011;50709;52.648;4.764;2022-10-17T04:09:00;8.55;;;5.82;;
64387;SDS011;50709;52.648;4.764;2022-10-17T04:11:26;9.65;;;6.38;;
64387;SDS011;50709;52.648;4.764;2022-10-17T04:13:52;8.85;;;6.03;;
64387;SDS011;50709;52.648;4.764;2022-10-17T04:16:19;10.45;;;6.18;;
64387;SDS011;50709;52.648;4.764;2022-10-17T04:18:45;7.97;;;5.45;;
64387;SDS011;50709;52.648;4.764;2022-10-17T04:21:10;10.07;;;5.80;;
64387;SDS011;50709;52.648;4.764;2022-10-17T04:23:36;10.77;;;6.50;;
64387;SDS011;50709;52.648;4.764;2022-10-17T04:26:02;9.05;;;6.05;;
64387;SDS011;50709;52.648;4.764;2022-10-17T04:28:29;9.65;;;6.03;;
64387;SDS011;50709;52.648;4.764;2022-10-17T04:30:58;9.10;;;5.80;;
64387;SDS011;50709;52.648;4.764;2022-10-17T04:33:24;11.18;;;5.88;;
64387;SDS011;50709;52.648;4.764;2022-10-17T04:35:56;9.38;;;5.68;;
64387;SDS011;50709;52.648;4.764;2022-10-17T04:38:23;9.63;;;5.82;;
64387;SDS011;50709;52.648;4.764;2022-10-17T04:40:48;10.95;;;6.60;;
64387;SDS011;50709;52.648;4.764;2022-10-17T04:43:14;8.27;;;5.22;;
64387;SDS011;50709;52.648;4.764;2022-10-17T04:45:39;11.80;;;6.88;;
64387;SDS011;50709;52.648;4.764;2022-10-17T04:48:04;9.07;;;6.15;;
64387;SDS011;50709;52.648;4.764;2022-10-17T04:50:30;9.85;;;6.75;;
64387;SDS011;50709;52.648;4.764;2022-10-17T04:52:55;10.50;;;6.18;;
64387;SDS011;50709;52.648;4.764;2022-10-17T04:55:20;8.38;;;6.05;;
64387;SDS011;50709;52.648;4.764;2022-10-17T04:57:46;11.48;;;6.45;;
64387;SDS011;50709;52.648;4.764;2022-10-17T05:00:11;11.95;;;6.78;;
64387;SDS011;50709;52.648;4.764;2022-10-17T05:02:37;11.30;;;7.18;;
64387;SDS011;50709;52.648;4.764;2022-10-17T05:05:02;10.40;;;6.60;;
64387;SDS011;50709;52.648;4.764;2022-10-17T05:07:28;10.73;;;6.93;;
64387;SDS011;50709;52.648;4.764;2022-10-17T05:09:53;10.90;;;6.22;;
64387;SDS011;50709;52.648;4.764;2022-10-17T05:12:18;11.07;;;6.88;;
64387;SDS011;50709;52.648;4.764;2022-10-17T05:14:44;11.05;;;6.80;;
64387;SDS011;50709;52.648;4.764;2022-10-17T05:17:09;13.93;;;7.32;;
64387;SDS011;50709;52.648;4.764;2022-10-17T05:19:34;13.50;;;7.35;;
64387;SDS011;50709;52.648;4.764;2022-10-17T05:22:00;11.90;;;7.18;;
64387;SDS011;50709;52.648;4.764;2022-10-17T05:24:25;15.20;;;7.10;;
64387;SDS011;50709;52.648;4.764;2022-10-17T05:26:50;14.95;;;6.97;;
64387;SDS011;50709;52.648;4.764;2022-10-17T05:29:16;11.07;;;6.82;;
64387;SDS011;50709;52.648;4.764;2022-10-17T05:31:41;9.48;;;6.03;;
64387;SDS011;50709;52.648;4.764;2022-10-17T05:34:07;13.52;;;7.15;;
64387;SDS011;50709;52.648;4.764;2022-10-17T05:36:32;10.35;;;6.30;;
64387;SDS011;50709;52.648;4.764;2022-10-17T05:38:58;10.88;;;6.47;;
64387;SDS011;50709;52.648;4.764;2022-10-17T05:41:24;10.65;;;6.75;;
64387;SDS011;50709;52.648;4.764;2022-10-17T05:43:49;10.88;;;7.10;;
64387;SDS011;50709;52.648;4.764;2022-10-17T05:46:15;9.43;;;6.22;;
64387;SDS011;50709;52.648;4.764;2022-10-17T05:48:40;11.70;;;6.68;;
64387;SDS011;50709;52.648;4.764;2022-10-17T05:51:07;10.10;;;6.20;;
64387;SDS011;50709;52.648;4.764;2022-10-17T05:53:34;10.20;;;6.45;;
64387;SDS011;50709;52.648;4.764;2022-10-17T05:56:02;8.40;;;5.90;;
64387;SDS011;50709;52.648;4.764;2022-10-17T05:58:30;8.70;;;6.72;;
64387;SDS011;50709;52.648;4.764;2022-10-17T06:01:00;9.18;;;5.90;;
64387;SDS011;50709;52.648;4.764;2022-10-17T06:03:28;10.43;;;6.38;;
64387;SDS011;50709;52.648;4.764;2022-10-17T06:05:54;10.15;;;6.45;;
64387;SDS011;50709;52.648;4.764;2022-10-17T06:08:20;10.90;;;6.25;;
64387;SDS011;50709;52.648;4.764;2022-10-17T06:10:46;10.68;;;5.93;;
64387;SDS011;50709;52.648;4.764;2022-10-17T06:13:15;9.20;;;6.18;;
64387;SDS011;50709;52.648;4.764;2022-10-17T06:15:41;9.43;;;5.72;;
64387;SDS011;50709;52.648;4.764;2022-10-17T06:18:06;9.55;;;5.95;;
64387;SDS011;50709;52.648;4.764;2022-10-17T06:20:32;9.50;;;6.07;;
64387;SDS011;50709;52.648;4.764;2022-10-17T06:22:58;12.68;;;6.68;;
64387;SDS011;50709;52.648;4.764;2022-10-17T06:25:23;8.98;;;5.72;;
64387;SDS011;50709;52.648;4.764;2022-10-17T06:27:48;9.82;;;6.35;;
64387;SDS011;50709;52.648;4.764;2022-10-17T06:30:14;11.48;;;6.43;;
64387;SDS011;50709;52.648;4.764;2022-10-17T06:32:39;9.00;;;6.35;;
64387;SDS011;50709;52.648;4.764;2022-10-17T06:35:05;9.25;;;5.32;;
64387;SDS011;50709;52.648;4.764;2022-10-17T06:37:30;8.40;;;5.43;;
64387;SDS011;50709;52.648;4.764;2022-10-17T06:39:57;8.68;;;5.75;;
64387;SDS011;50709;52.648;4.764;2022-10-17T06:42:22;9.70;;;5.80;;
64387;SDS011;50709;52.648;4.764;2022-10-17T06:44:48;10.27;;;5.68;;
64387;SDS011;50709;52.648;4.764;2022-10-17T06:47:13;9.57;;;5.82;;
64387;SDS011;50709;52.648;4.764;2022-10-17T06:49:38;11.23;;;7.15;;
64387;SDS011;50709;52.648;4.764;2022-10-17T06:52:04;7.95;;;5.75;;
64387;SDS011;50709;52.648;4.764;2022-10-17T06:54:29;10.18;;;5.80;;
64387;SDS011;50709;52.648;4.764;2022-10-17T06:56:54;7.93;;;5.57;;
64387;SDS011;50709;52.648;4.764;2022-10-17T06:59:20;13.20;;;5.22;;
64387;SDS011;50709;52.648;4.764;2022-10-17T07:01:46;8.50;;;4.50;;
64387;SDS011;50709;52.648;4.764;2022-10-17T07:04:12;10.95;;;4.28;;
64387;SDS011;50709;52.648;4.764;2022-10-17T07:06:37;7.97;;;4.80;;
64387;SDS011;50709;52.648;4.764;2022-10-17T07:09:03;7.10;;;5.18;;
64387;SDS011;50709;52.648;4.764;2022-10-17T07:11:30;11.15;;;4.78;;
64387;SDS011;50709;52.648;4.764;2022-10-17T07:13:57;9.18;;;4.72;;
64387;SDS011;50709;52.648;4.764;2022-10-17T07:16:22;7.85;;;4.65;;
64387;SDS011;50709;52.648;4.764;2022-10-17T07:18:48;7.20;;;4.68;;
64387;SDS011;50709;52.648;4.764;2022-10-17T07:21:15;30.60;;;6.40;;
64387;SDS011;50709;52.648;4.764;2022-10-17T07:23:40;11.70;;;4.80;;
64387;SDS011;50709;52.648;4.764;2022-10-17T07:26:07;14.00;;;5.45;;
64387;SDS011;50709;52.648;4.764;2022-10-17T07:28:35;14.68;;;5.68;;
64387;SDS011;50709;52.648;4.764;2022-10-17T07:31:05;13.68;;;5.47;;
64387;SDS011;50709;52.648;4.764;2022-10-17T07:33:33;9.70;;;4.93;;
64387;SDS011;50709;52.648;4.764;2022-10-17T07:35:59;11.02;;;5.15;;
64387;SDS011;50709;52.648;4.764;2022-10-17T07:38:25;10.05;;;5.45;;
64387;SDS011;50709;52.648;4.764;2022-10-17T07:40:54;10.35;;;5.07;;
64387;SDS011;50709;52.648;4.764;2022-10-17T07:43:22;9.05;;;4.60;;
64387;SDS011;50709;52.648;4.764;2022-10-17T07:45:48;12.13;;;5.10;;
64387;SDS011;50709;52.648;4.764;2022-10-17T07:48:13;9.32;;;4.63;;
64387;SDS011;50709;52.648;4.764;2022-10-17T07:50:39;9.43;;;5.00;;
64387;SDS011;50709;52.648;4.764;2022-10-17T07:53:04;11.15;;;5.07;;
64387;SDS011;50709;52.648;4.764;2022-10-17T07:55:29;6.90;;;4.45;;
64387;SDS011;50709;52.648;4.764;2022-10-17T07:57:55;11.27;;;4.97;;
64387;SDS011;50709;52.648;4.764;2022-10-17T08:00:21;9.25;;;4.78;;
64387;SDS011;50709;52.648;4.764;2022-10-17T08:02:47;9.93;;;4.95;;
64387;SDS011;50709;52.648;4.764;2022-10-17T08:05:12;10.40;;;4.90;;
64387;SDS011;50709;52.648;4.764;2022-10-17T08:07:37;8.02;;;4.80;;
64387;SDS011;50709;52.648;4.764;2022-10-17T08:10:04;9.00;;;5.07;;
64387;SDS011;50709;52.648;4.764;2022-10-17T08:12:30;9.43;;;4.57;;
64387;SDS011;50709;52.648;4.764;2022-10-17T08:14:58;6.78;;;4.70;;
64387;SDS011;50709;52.648;4.764;2022-10-17T08:17:27;7.18;;;5.00;;
64387;SDS011;50709;52.648;4.764;2022-10-17T08:19:52;10.88;;;4.78;;
64387;SDS011;50709;52.648;4.764;2022-10-17T08:22:17;8.68;;;4.43;;
64387;SDS011;50709;52.648;4.764;2022-10-17T08:24:43;7.00;;;4.55;;
64387;SDS011;50709;52.648;4.764;2022-10-17T08:27:10;8.23;;;4.80;;
64387;SDS011;50709;52.648;4.764;2022-10-17T08:29:37;8.07;;;4.68;;
64387;SDS011;50709;52.648;4.764;2022-10-17T08:32:04;8.35;;;4.75;;
64387;SDS011;50709;52.648;4.764;2022-10-17T08:34:31;8.02;;;5.18;;
64387;SDS011;50709;52.648;4.764;2022-10-17T08:36:57;6.07;;;4.40;;
64387;SDS011;50709;52.648;4.764;2022-10-17T08:39:22;7.50;;;4.32;;
64387;SDS011;50709;52.648;4.764;2022-10-17T08:41:51;8.43;;;5.00;;
64387;SDS011;50709;52.648;4.764;2022-10-17T08:47:26;9.35;;;4.95;;
64387;SDS011;50709;52.648;4.764;2022-10-17T08:49:58;6.47;;;4.30;;
64387;SDS011;50709;52.648;4.764;2022-10-17T08:55:02;7.57;;;4.22;;
64387;SDS011;50709;52.648;4.764;2022-10-17T08:57:28;5.97;;;4.15;;
64387;SDS011;50709;52.648;4.764;2022-10-17T08:59:54;7.97;;;4.35;;
64387;SDS011;50709;52.648;4.764;2022-10-17T09:02:34;6.65;;;4.25;;
64387;SDS011;50709;52.648;4.764;2022-10-17T09:10:44;5.97;;;3.97;;
64387;SDS011;50709;52.648;4.764;2022-10-17T09:13:25;6.68;;;4.13;;
64387;SDS011;50709;52.648;4.764;2022-10-17T09:18:44;6.15;;;3.80;;
64387;SDS011;50709;52.648;4.764;2022-10-17T09:23:44;9.43;;;4.50;;
64387;SDS011;50709;52.648;4.764;2022-10-17T09:26:14;7.50;;;4.13;;
64387;SDS011;50709;52.648;4.764;2022-10-17T09:28:40;8.73;;;4.20;;
64387;SDS011;50709;52.648;4.764;2022-10-17T09:31:18;8.65;;;4.35;;
64387;SDS011;50709;52.648;4.764;2022-10-17T09:33:48;6.55;;;3.88;;
64387;SDS011;50709;52.648;4.764;2022-10-17T09:36:22;6.90;;;4.00;;
64387;SDS011;50709;52.648;4.764;2022-10-17T09:38:52;6.80;;;4.05;;
64387;SDS011;50709;52.648;4.764;2022-10-17T09:41:35;7.05;;;4.00;;
64387;SDS011;50709;52.648;4.764;2022-10-17T09:46:42;8.32;;;3.92;;
64387;SDS011;50709;52.648;4.764;2022-10-17T09:49:25;7.43;;;4.25;;
64387;SDS011;50709;52.648;4.764;2022-10-17T09:51:56;6.73;;;3.80;;
64387;SDS011;50709;52.648;4.764;2022-10-17T09:54:23;6.97;;;3.60;;
64387;SDS011;50709;52.648;4.764;2022-10-17T09:57:03;7.63;;;3.80;;
64387;SDS011;50709;52.648;4.764;2022-10-17T09:59:31;6.57;;;4.03;;
64387;SDS011;50709;52.648;4.764;2022-10-17T10:02:11;7.10;;;3.60;;
64387;SDS011;50709;52.648;4.764;2022-10-17T10:07:18;6.75;;;3.83;;
64387;SDS011;50709;52.648;4.764;2022-10-17T10:09:45;4.38;;;3.13;;
64387;SDS011;50709;52.648;4.764;2022-10-17T10:12:17;5.88;;;3.53;;
64387;SDS011;50709;52.648;4.764;2022-10-17T10:14:53;5.32;;;3.30;;
64387;SDS011;50709;52.648;4.764;2022-10-17T10:19:50;4.97;;;3.13;;
64387;SDS011;50709;52.648;4.764;2022-10-17T10:22:17;6.45;;;3.10;;
64387;SDS011;50709;52.648;4.764;2022-10-17T10:24:44;8.95;;;3.67;;
64387;SDS011;50709;52.648;4.764;2022-10-17T10:27:13;6.03;;;3.45;;
64387;SDS011;50709;52.648;4.764;2022-10-17T10:29:48;8.25;;;3.58;;
64387;SDS011;50709;52.648;4.764;2022-10-17T10:34:53;7.70;;;3.47;;
64387;SDS011;50709;52.648;4.764;2022-10-17T10:37:40;7.07;;;3.40;;
64387;SDS011;50709;52.648;4.764;2022-10-17T10:42:40;5.85;;;3.10;;
64387;SDS011;50709;52.648;4.764;2022-10-17T10:47:58;5.57;;;3.22;;
64387;SDS011;50709;52.648;4.764;2022-10-17T10:50:45;6.95;;;2.95;;
64387;SDS011;50709;52.648;4.764;2022-10-17T10:59:02;4.63;;;3.00;;
64387;SDS011;50709;52.648;4.764;2022-10-17T11:06:56;5.57;;;3.20;;
64387;SDS011;50709;52.648;4.764;2022-10-17T11:12:05;5.85;;;2.80;;
64387;SDS011;50709;52.648;4.764;2022-10-17T11:14:40;5.97;;;3.17;;
64387;SDS011;50709;52.648;4.764;2022-10-17T11:17:24;7.85;;;3.38;;
64387;SDS011;50709;52.648;4.764;2022-10-17T11:22:41;8.20;;;3.53;;
64387;SDS011;50709;52.648;4.764;2022-10-17T11:27:46;6.20;;;3.28;;
64387;SDS011;50709;52.648;4.764;2022-10-17T11:30:13;4.88;;;2.90;;
64387;SDS011;50709;52.648;4.764;2022-10-17T11:32:43;5.95;;;2.97;;
64387;SDS011;50709;52.648;4.764;2022-10-17T11:35:20;4.93;;;3.25;;
64387;SDS011;50709;52.648;4.764;2022-10-17T11:40:34;4.22;;;2.88;;
64387;SDS011;50709;52.648;4.764;2022-10-17T11:43:04;5.55;;;3.10;;
64387;SDS011;50709;52.648;4.764;2022-10-17T11:45:41;5.07;;;2.70;;
64387;SDS011;50709;52.648;4.764;2022-10-17T11:48:11;6.85;;;3.17;;
64387;SDS011;50709;52.648;4.764;2022-10-17T11:50:42;7.82;;;3.05;;
64387;SDS011;50709;52.648;4.764;2022-10-17T11:55:40;5.60;;;3.13;;
64387;SDS011;50709;52.648;4.764;2022-10-17T11:58:40;8.10;;;3.28;;
64387;SDS011;50709;52.648;4.764;2022-10-17T12:04:16;5.63;;;3.10;;
64387;SDS011;50709;52.648;4.764;2022-10-17T12:09:46;5.93;;;2.97;;
64387;SDS011;50709;52.648;4.764;2022-10-17T12:12:32;6.85;;;2.95;;
64387;SDS011;50709;52.648;4.764;2022-10-17T12:17:37;4.43;;;2.97;;
64387;SDS011;50709;52.648;4.764;2022-10-17T12:22:49;5.82;;;3.10;;
64387;SDS011;50709;52.648;4.764;2022-10-17T12:25:28;7.75;;;3.20;;
64387;SDS011;50709;52.648;4.764;2022-10-17T12:28:04;4.85;;;2.88;;
64387;SDS011;50709;52.648;4.764;2022-10-17T12:30:48;4.45;;;2.75;;
64387;SDS011;50709;52.648;4.764;2022-10-17T12:33:25;6.53;;;3.08;;
64387;SDS011;50709;52.648;4.764;2022-10-17T12:49:22;5.22;;;3.00;;
64387;SDS011;50709;52.648;4.764;2022-10-17T13:00:17;4.97;;;2.95;;
64387;SDS011;50709;52.648;4.764;2022-10-17T13:02:46;6.93;;;3.10;;
64387;SDS011;50709;52.648;4.764;2022-10-17T13:05:15;6.10;;;3.08;;
64387;SDS011;50709;52.648;4.764;2022-10-17T13:07:46;5.15;;;3.25;;
64387;SDS011;50709;52.648;4.764;2022-10-17T13:10:18;5.32;;;3.00;;
64387;SDS011;50709;52.648;4.764;2022-10-17T13:12:46;4.68;;;2.65;;
64387;SDS011;50709;52.648;4.764;2022-10-17T13:15:14;6.82;;;2.92;;
64387;SDS011;50709;52.648;4.764;2022-10-17T13:17:43;6.30;;;3.00;;
64387;SDS011;50709;52.648;4.764;2022-10-17T13:20:19;4.80;;;2.85;;
64387;SDS011;50709;52.648;4.764;2022-10-17T13:22:49;5.38;;;2.75;;
64387;SDS011;50709;52.648;4.764;2022-10-17T13:25:15;5.50;;;2.72;;
64387;SDS011;50709;52.648;4.764;2022-10-17T13:27:42;9.48;;;2.90;;
64387;SDS011;50709;52.648;4.764;2022-10-17T13:30:22;5.47;;;2.80;;
64387;SDS011;50709;52.648;4.764;2022-10-17T13:32:55;4.18;;;2.70;;
64387;SDS011;50709;52.648;4.764;2022-10-17T13:35:23;4.75;;;2.88;;
64387;SDS011;50709;52.648;4.764;2022-10-17T13:37:52;4.18;;;2.85;;
64387;SDS011;50709;52.648;4.764;2022-10-17T13:40:22;7.57;;;3.10;;
64387;SDS011;50709;52.648;4.764;2022-10-17T13:42:50;5.50;;;2.85;;
64387;SDS011;50709;52.648;4.764;2022-10-17T13:45:19;5.88;;;2.80;;
64387;SDS011;50709;52.648;4.764;2022-10-17T13:48:05;6.93;;;2.90;;
64387;SDS011;50709;52.648;4.764;2022-10-17T13:50:42;5.80;;;3.15;;
64387;SDS011;50709;52.648;4.764;2022-10-17T13:53:29;6.97;;;3.03;;
64387;SDS011;50709;52.648;4.764;2022-10-17T13:56:14;4.72;;;3.05;;
64387;SDS011;50709;52.648;4.764;2022-10-17T13:58:47;5.75;;;3.13;;
64387;SDS011;50709;52.648;4.764;2022-10-17T14:01:14;6.55;;;3.08;;
64387;SDS011;50709;52.648;4.764;2022-10-17T14:03:41;6.53;;;3.17;;
64387;SDS011;50709;52.648;4.764;2022-10-17T14:08:48;5.18;;;3.30;;
64387;SDS011;50709;52.648;4.764;2022-10-17T14:11:39;5.97;;;3.00;;
64387;SDS011;50709;52.648;4.764;2022-10-17T14:14:07;4.72;;;2.90;;
64387;SDS011;50709;52.648;4.764;2022-10-17T14:16:42;6.35;;;2.78;;
64387;SDS011;50709;52.648;4.764;2022-10-17T14:19:25;6.93;;;3.10;;
64387;SDS011;50709;52.648;4.764;2022-10-17T14:21:55;6.63;;;2.80;;
64387;SDS011;50709;52.648;4.764;2022-10-17T14:24:38;6.63;;;2.83;;
64387;SDS011;50709;52.648;4.764;2022-10-17T14:27:23;4.22;;;2.47;;
64387;SDS011;50709;52.648;4.764;2022-10-17T14:29:53;5.60;;;2.90;;
64387;SDS011;50709;52.648;4.764;2022-10-17T14:32:19;8.18;;;3.05;;
64387;SDS011;50709;52.648;4.764;2022-10-17T14:34:50;6.88;;;2.88;;
64387;SDS011;50709;52.648;4.764;2022-10-17T14:39:49;5.75;;;2.53;;
64387;SDS011;50709;52.648;4.764;2022-10-17T14:42:18;4.65;;;3.03;;
64387;SDS011;50709;52.648;4.764;2022-10-17T14:44:47;8.18;;;3.10;;
64387;SDS011;50709;52.648;4.764;2022-10-17T14:47:16;4.93;;;2.80;;
64387;SDS011;50709;52.648;4.764;2022-10-17T14:49:47;5.50;;;2.80;;
64387;SDS011;50709;52.648;4.764;2022-10-17T14:54:39;4.80;;;2.57;;
64387;SDS011;50709;52.648;4.764;2022-10-17T14:57:21;8.07;;;3.05;;
64387;SDS011;50709;52.648;4.764;2022-10-17T14:59:52;4.60;;;3.10;;
64387;SDS011;50709;52.648;4.764;2022-10-17T15:02:19;8.35;;;3.08;;
64387;SDS011;50709;52.648;4.764;2022-10-17T15:04:45;7.85;;;3.10;;
64387;SDS011;50709;52.648;4.764;2022-10-17T15:07:13;8.20;;;3.00;;
64387;SDS011;50709;52.648;4.764;2022-10-17T15:09:40;7.65;;;2.90;;
64387;SDS011;50709;52.648;4.764;2022-10-17T15:12:10;7.25;;;3.10;;
64387;SDS011;50709;52.648;4.764;2022-10-17T15:14:38;6.72;;;2.75;;
64387;SDS011;50709;52.648;4.764;2022-10-17T15:17:08;5.13;;;2.78;;
64387;SDS011;50709;52.648;4.764;2022-10-17T15:19:38;7.70;;;3.17;;
64387;SDS011;50709;52.648;4.764;2022-10-17T15:22:03;10.23;;;3.13;;
64387;SDS011;50709;52.648;4.764;2022-10-17T15:24:29;5.35;;;2.90;;
64387;SDS011;50709;52.648;4.764;2022-10-17T15:26:54;4.75;;;2.60;;
64387;SDS011;50709;52.648;4.764;2022-10-17T15:29:20;7.15;;;2.78;;
64387;SDS011;50709;52.648;4.764;2022-10-17T15:31:45;6.65;;;3.17;;
64387;SDS011;50709;52.648;4.764;2022-10-17T15:34:11;7.15;;;3.25;;
64387;SDS011;50709;52.648;4.764;2022-10-17T15:36:39;6.60;;;3.17;;
64387;SDS011;50709;52.648;4.764;2022-10-17T15:39:06;7.35;;;3.47;;
64387;SDS011;50709;52.648;4.764;2022-10-17T15:41:33;4.70;;;2.92;;
64387;SDS011;50709;52.648;4.764;2022-10-17T15:43:59;7.53;;;3.17;;
64387;SDS011;50709;52.648;4.764;2022-10-17T15:46:31;8.25;;;3.45;;
64387;SDS011;50709;52.648;4.764;2022-10-17T15:49:05;7.75;;;3.38;;
64387;SDS011;50709;52.648;4.764;2022-10-17T15:51:34;9.15;;;3.45;;
64387;SDS011;50709;52.648;4.764;2022-10-17T15:54:00;9.77;;;4.13;;
64387;SDS011;50709;52.648;4.764;2022-10-17T15:56:27;7.13;;;3.38;;
64387;SDS011;50709;52.648;4.764;2022-10-17T15:58:55;12.63;;;3.55;;
64387;SDS011;50709;52.648;4.764;2022-10-17T16:01:25;5.43;;;3.13;;
64387;SDS011;50709;52.648;4.764;2022-10-17T16:03:53;6.80;;;3.30;;
64387;SDS011;50709;52.648;4.764;2022-10-17T16:06:20;6.82;;;3.42;;
64387;SDS011;50709;52.648;4.764;2022-10-17T16:08:46;7.95;;;3.78;;
64387;SDS011;50709;52.648;4.764;2022-10-17T16:11:17;6.63;;;3.38;;
64387;SDS011;50709;52.648;4.764;2022-10-17T16:14:03;10.32;;;3.20;;
64387;SDS011;50709;52.648;4.764;2022-10-17T16:16:30;6.50;;;3.03;;
64387;SDS011;50709;52.648;4.764;2022-10-17T16:18:56;5.50;;;2.90;;
64387;SDS011;50709;52.648;4.764;2022-10-17T16:21:42;5.68;;;3.00;;
64387;SDS011;50709;52.648;4.764;2022-10-17T16:24:08;5.07;;;3.05;;
64387;SDS011;50709;52.648;4.764;2022-10-17T16:26:35;7.10;;;3.10;;
64387;SDS011;50709;52.648;4.764;2022-10-17T16:29:01;9.25;;;3.33;;
64387;SDS011;50709;52.648;4.764;2022-10-17T16:31:35;6.50;;;3.08;;
64387;SDS011;50709;52.648;4.764;2022-10-17T16:34:04;6.30;;;2.97;;
64387;SDS011;50709;52.648;4.764;2022-10-17T16:36:30;6.15;;;3.17;;
64387;SDS011;50709;52.648;4.764;2022-10-17T16:38:56;5.20;;;3.08;;
64387;SDS011;50709;52.648;4.764;2022-10-17T16:41:25;8.38;;;3.67;;
64387;SDS011;50709;52.648;4.764;2022-10-17T16:43:56;6.07;;;3.00;;
64387;SDS011;50709;52.648;4.764;2022-10-17T16:46:23;7.72;;;3.65;;
64387;SDS011;50709;52.648;4.764;2022-10-17T16:48:49;9.18;;;3.30;;
64387;SDS011;50709;52.648;4.764;2022-10-17T16:51:16;7.55;;;3.10;;
64387;SDS011;50709;52.648;4.764;2022-10-17T16:53:43;5.97;;;3.08;;
64387;SDS011;50709;52.648;4.764;2022-10-17T16:56:14;8.02;;;3.28;;
64387;SDS011;50709;52.648;4.764;2022-10-17T16:58:42;5.65;;;3.15;;
64387;SDS011;50709;52.648;4.764;2022-10-17T17:01:09;8.10;;;3.08;;
64387;SDS011;50709;52.648;4.764;2022-10-17T17:03:37;8.45;;;3.28;;
64387;SDS011;50709;52.648;4.764;2022-10-17T17:06:04;8.15;;;3.58;;
64387;SDS011;50709;52.648;4.764;2022-10-17T17:08:30;11.23;;;3.47;;